createdAt,value
2018-12-26T00:00:03.205Z,4.43
2018-12-26T00:01:02.611Z,4.37
2018-12-26T00:02:03.009Z,4.43
2018-12-26T00:03:02.292Z,4.37
2018-12-26T00:04:02.596Z,4.37
2018-12-26T00:05:02.842Z,4.43
2018-12-26T00:06:03.154Z,4.43
2018-12-26T00:07:02.444Z,4.37
2018-12-26T00:08:02.819Z,4.37
2018-12-26T00:09:03.083Z,4.43
2018-12-26T00:10:02.406Z,4.37
2018-12-26T00:11:02.677Z,4.37
2018-12-26T00:12:03.003Z,4.37
2018-12-26T00:13:02.274Z,4.37
2018-12-26T00:14:02.648Z,4.37
2018-12-26T00:15:02.919Z,4.37
2018-12-26T00:16:03.239Z,4.37
2018-12-26T00:17:02.527Z,4.37
2018-12-26T00:18:02.831Z,4.37
2018-12-26T00:19:03.119Z,4.37
2018-12-26T00:20:02.560Z,4.43
2018-12-26T00:21:02.832Z,4.37
2018-12-26T00:22:03.076Z,4.37
2018-12-26T00:23:02.354Z,4.37
2018-12-26T00:24:02.710Z,4.37
2018-12-26T00:25:03.281Z,4.37
2018-12-26T00:26:02.606Z,4.37
2018-12-26T00:27:02.924Z,4.43
2018-12-26T00:28:03.345Z,4.37
2018-12-26T00:29:02.594Z,4.43
2018-12-26T00:30:02.930Z,4.43
2018-12-26T00:31:03.480Z,4.43
2018-12-26T00:32:02.773Z,4.37
2018-12-26T00:33:03.097Z,4.37
2018-12-26T00:34:02.356Z,4.37
2018-12-26T00:35:02.676Z,4.37
2018-12-26T00:36:03.005Z,4.37
2018-12-26T00:37:02.339Z,4.37
2018-12-26T00:38:02.605Z,4.37
2018-12-26T00:39:02.914Z,4.43
2018-12-26T00:40:03.210Z,4.37
2018-12-26T00:41:02.610Z,4.37
2018-12-26T00:42:02.970Z,4.37
2018-12-26T00:43:02.274Z,4.43
2018-12-26T00:44:02.567Z,4.37
2018-12-26T00:45:02.882Z,4.37
2018-12-26T00:46:03.157Z,4.37
2018-12-26T00:47:02.435Z,4.37
2018-12-26T00:48:02.806Z,4.37
2018-12-26T00:49:03.083Z,4.37
2018-12-26T00:50:02.357Z,4.37
2018-12-26T00:51:02.680Z,4.37
2018-12-26T00:52:02.992Z,4.37
2018-12-26T00:53:02.285Z,4.37
2018-12-26T00:54:02.649Z,4.37
2018-12-26T00:55:02.908Z,4.37
2018-12-26T00:56:10.356Z,4.37
2018-12-26T00:57:02.924Z,4.37
2018-12-26T00:58:03.240Z,4.37
2018-12-26T00:59:02.540Z,4.37
2018-12-26T01:00:02.938Z,4.37
2018-12-26T01:01:03.242Z,4.37
2018-12-26T01:02:02.534Z,4.43
2018-12-26T01:03:02.879Z,4.43
2018-12-26T01:04:03.164Z,4.37
2018-12-26T01:05:02.452Z,4.43
2018-12-26T01:06:02.815Z,4.37
2018-12-26T01:07:03.951Z,4.37
2018-12-26T01:08:03.256Z,4.37
2018-12-26T01:09:02.535Z,4.37
2018-12-26T01:10:02.854Z,4.37
2018-12-26T01:11:03.346Z,4.37
2018-12-26T01:12:02.740Z,4.43
2018-12-26T01:13:03.012Z,4.37
2018-12-26T01:14:02.276Z,4.37
2018-12-26T01:15:02.592Z,4.43
2018-12-26T01:16:02.843Z,4.43
2018-12-26T01:17:03.301Z,4.37
2018-12-26T01:18:02.607Z,4.37
2018-12-26T01:19:02.924Z,4.43
2018-12-26T01:20:03.231Z,4.37
2018-12-26T01:21:02.570Z,4.43
2018-12-26T01:22:02.838Z,4.37
2018-12-26T01:23:03.261Z,4.37
2018-12-26T01:24:02.512Z,4.37
2018-12-26T01:25:02.839Z,4.37
2018-12-26T01:26:03.214Z,4.37
2018-12-26T01:27:02.523Z,4.37
2018-12-26T01:28:02.844Z,4.37
2018-12-26T01:29:03.701Z,4.37
2018-12-26T01:30:03.006Z,4.31
2018-12-26T01:31:02.285Z,4.31
2018-12-26T01:32:02.611Z,4.31
2018-12-26T01:33:02.924Z,4.37
2018-12-26T01:34:03.241Z,4.37
2018-12-26T01:35:02.643Z,4.37
2018-12-26T01:36:02.928Z,4.37
2018-12-26T01:37:03.228Z,4.37
2018-12-26T01:38:02.529Z,4.37
2018-12-26T01:39:02.856Z,4.37
2018-12-26T01:40:03.256Z,4.37
2018-12-26T01:41:02.508Z,4.37
2018-12-26T01:42:02.931Z,4.37
2018-12-26T01:43:03.346Z,4.37
2018-12-26T01:44:02.612Z,4.31
2018-12-26T01:45:02.918Z,4.31
2018-12-26T01:46:03.284Z,4.37
2018-12-26T01:47:02.841Z,4.37
2018-12-26T01:48:03.171Z,4.37
2018-12-26T01:49:02.436Z,4.31
2018-12-26T01:50:02.756Z,4.31
2018-12-26T01:51:03.011Z,4.37
2018-12-26T01:52:02.364Z,4.37
2018-12-26T01:53:02.694Z,4.37
2018-12-26T01:54:03.018Z,4.43
2018-12-26T01:55:02.270Z,4.37
2018-12-26T01:56:02.598Z,4.37
2018-12-26T01:57:02.977Z,4.37
2018-12-26T01:58:02.281Z,4.37
2018-12-26T01:59:02.593Z,4.37
2018-12-26T02:00:02.916Z,4.31
2018-12-26T02:01:03.235Z,4.37
2018-12-26T02:02:02.618Z,4.37
2018-12-26T02:03:02.964Z,4.37
2018-12-26T02:04:02.285Z,4.37
2018-12-26T02:05:02.605Z,4.31
2018-12-26T02:06:02.928Z,4.37
2018-12-26T02:07:03.254Z,4.37
2018-12-26T02:08:02.736Z,4.37
2018-12-26T02:09:03.288Z,4.37
2018-12-26T02:10:02.787Z,4.37
2018-12-26T02:11:03.265Z,4.37
2018-12-26T02:12:02.753Z,4.37
2018-12-26T02:13:03.120Z,4.37
2018-12-26T02:14:02.626Z,4.31
2018-12-26T02:15:03.040Z,4.31
2018-12-26T02:16:02.350Z,4.31
2018-12-26T02:17:02.731Z,4.31
2018-12-26T02:18:02.992Z,4.31
2018-12-26T02:19:02.269Z,4.31
2018-12-26T02:20:02.653Z,4.31
2018-12-26T02:21:03.013Z,4.31
2018-12-26T02:22:02.276Z,4.31
2018-12-26T02:23:02.534Z,4.31
2018-12-26T02:24:02.833Z,4.31
2018-12-26T02:25:03.149Z,4.31
2018-12-26T02:26:02.495Z,4.31
2018-12-26T02:27:02.871Z,4.31
2018-12-26T02:28:03.161Z,4.31
2018-12-26T02:29:02.488Z,4.31
2018-12-26T02:30:02.765Z,4.31
2018-12-26T02:31:03.084Z,4.31
2018-12-26T02:32:02.360Z,4.31
2018-12-26T02:33:02.850Z,4.31
2018-12-26T02:34:03.164Z,4.31
2018-12-26T02:35:02.450Z,4.31
2018-12-26T02:36:02.940Z,4.31
2018-12-26T02:37:02.287Z,4.31
2018-12-26T02:38:02.620Z,4.31
2018-12-26T02:39:02.976Z,4.31
2018-12-26T02:40:02.278Z,4.31
2018-12-26T02:41:02.595Z,4.31
2018-12-26T02:42:02.926Z,4.31
2018-12-26T02:43:03.243Z,4.31
2018-12-26T02:44:02.522Z,4.31
2018-12-26T02:45:02.894Z,4.31
2018-12-26T02:46:03.212Z,4.25
2018-12-26T02:47:02.538Z,4.25
2018-12-26T02:48:02.892Z,4.25
2018-12-26T02:49:03.241Z,4.31
2018-12-26T02:50:02.604Z,4.25
2018-12-26T02:51:02.921Z,4.31
2018-12-26T02:52:03.230Z,4.31
2018-12-26T02:53:02.515Z,4.31
2018-12-26T02:54:03.686Z,4.25
2018-12-26T02:55:03.026Z,4.25
2018-12-26T02:56:02.330Z,4.25
2018-12-26T02:57:02.598Z,4.25
2018-12-26T02:58:02.925Z,4.25
2018-12-26T02:59:03.241Z,4.25
2018-12-26T03:00:02.521Z,4.31
2018-12-26T03:01:02.898Z,4.31
2018-12-26T03:02:03.166Z,4.31
2018-12-26T03:03:02.441Z,4.25
2018-12-26T03:04:02.766Z,4.25
2018-12-26T03:05:03.103Z,4.25
2018-12-26T03:06:02.408Z,4.31
2018-12-26T03:07:02.691Z,4.25
2018-12-26T03:08:03.000Z,4.25
2018-12-26T03:09:02.289Z,4.25
2018-12-26T03:10:02.603Z,4.25
2018-12-26T03:11:02.980Z,4.25
2018-12-26T03:12:02.336Z,4.25
2018-12-26T03:13:02.598Z,4.25
2018-12-26T03:14:03.279Z,4.25
2018-12-26T03:15:02.678Z,4.25
2018-12-26T03:16:02.996Z,4.25
2018-12-26T03:17:02.330Z,4.25
2018-12-26T03:18:02.604Z,4.25
2018-12-26T03:19:02.927Z,4.25
2018-12-26T03:20:03.294Z,4.25
2018-12-26T03:21:02.645Z,4.25
2018-12-26T03:22:02.944Z,4.25
2018-12-26T03:23:03.294Z,4.25
2018-12-26T03:24:02.621Z,4.18
2018-12-26T03:25:02.933Z,4.18
2018-12-26T03:26:03.261Z,4.25
2018-12-26T03:27:02.514Z,4.25
2018-12-26T03:28:02.842Z,4.18
2018-12-26T03:29:03.260Z,4.25
2018-12-26T03:30:02.535Z,4.25
2018-12-26T03:31:02.839Z,4.25
2018-12-26T03:32:03.126Z,4.18
2018-12-26T03:33:02.461Z,4.18
2018-12-26T03:34:02.778Z,4.25
2018-12-26T03:35:03.142Z,4.25
2018-12-26T03:36:02.529Z,4.25
2018-12-26T03:37:02.829Z,4.18
2018-12-26T03:38:03.090Z,4.18
2018-12-26T03:39:02.325Z,4.18
2018-12-26T03:40:02.654Z,4.25
2018-12-26T03:41:02.980Z,4.18
2018-12-26T03:42:02.279Z,4.25
2018-12-26T03:43:02.613Z,4.18
2018-12-26T03:44:02.927Z,4.18
2018-12-26T03:45:03.258Z,4.25
2018-12-26T03:46:02.605Z,4.25
2018-12-26T03:47:02.974Z,4.25
2018-12-26T03:48:02.283Z,4.25
2018-12-26T03:49:02.590Z,4.18
2018-12-26T03:50:02.919Z,4.18
2018-12-26T03:51:03.295Z,4.25
2018-12-26T03:52:02.650Z,4.18
2018-12-26T03:53:03.025Z,4.25
2018-12-26T03:54:02.300Z,4.25
2018-12-26T03:55:02.586Z,4.18
2018-12-26T03:56:02.843Z,4.25
2018-12-26T03:57:06.132Z,4.25
2018-12-26T03:58:02.986Z,4.18
2018-12-26T03:59:02.303Z,4.25
2018-12-26T04:00:02.606Z,4.25
2018-12-26T04:01:02.930Z,4.25
2018-12-26T04:02:03.254Z,4.18
2018-12-26T04:03:02.517Z,4.18
2018-12-26T04:04:02.892Z,4.18
2018-12-26T04:05:04.168Z,4.18
2018-12-26T04:06:03.663Z,4.18
2018-12-26T04:07:02.940Z,4.18
2018-12-26T04:08:03.244Z,4.18
2018-12-26T04:09:02.592Z,4.18
2018-12-26T04:10:02.887Z,4.18
2018-12-26T04:11:03.162Z,4.18
2018-12-26T04:12:02.449Z,4.18
2018-12-26T04:13:02.782Z,4.18
2018-12-26T04:14:03.080Z,4.18
2018-12-26T04:15:02.369Z,4.18
2018-12-26T04:16:02.737Z,4.18
2018-12-26T04:17:02.996Z,4.18
2018-12-26T04:18:02.327Z,4.18
2018-12-26T04:19:02.609Z,4.12
2018-12-26T04:20:02.931Z,4.18
2018-12-26T04:21:03.283Z,4.18
2018-12-26T04:22:02.712Z,4.18
2018-12-26T04:23:03.015Z,4.18
2018-12-26T04:24:02.275Z,4.18
2018-12-26T04:25:02.597Z,4.18
2018-12-26T04:26:02.850Z,4.18
2018-12-26T04:27:03.245Z,4.12
2018-12-26T04:28:02.522Z,4.18
2018-12-26T04:29:02.846Z,4.18
2018-12-26T04:30:03.207Z,4.18
2018-12-26T04:31:02.535Z,4.18
2018-12-26T04:32:02.850Z,4.18
2018-12-26T04:33:03.248Z,4.18
2018-12-26T04:34:02.537Z,4.12
2018-12-26T04:35:02.835Z,4.18
2018-12-26T04:36:03.169Z,4.12
2018-12-26T04:37:02.446Z,4.18
2018-12-26T04:38:03.320Z,4.18
2018-12-26T04:39:02.690Z,4.18
2018-12-26T04:40:03.028Z,4.18
2018-12-26T04:41:02.283Z,4.18
2018-12-26T04:42:02.594Z,4.18
2018-12-26T04:43:02.831Z,4.18
2018-12-26T04:44:03.177Z,4.18
2018-12-26T04:45:02.493Z,4.18
2018-12-26T04:46:02.764Z,4.18
2018-12-26T04:47:03.082Z,4.18
2018-12-26T04:48:02.372Z,4.18
2018-12-26T04:49:02.677Z,4.18
2018-12-26T04:50:02.949Z,4.18
2018-12-26T04:51:03.294Z,4.18
2018-12-26T04:52:03.522Z,4.18
2018-12-26T04:53:02.937Z,4.18
2018-12-26T04:54:03.241Z,4.18
2018-12-26T04:55:02.535Z,4.12
2018-12-26T04:56:02.846Z,4.18
2018-12-26T04:57:03.445Z,4.12
2018-12-26T04:58:02.782Z,4.18
2018-12-26T04:59:03.070Z,4.18
2018-12-26T05:00:02.363Z,4.18
2018-12-26T05:01:03.566Z,4.12
2018-12-26T05:02:02.854Z,4.18
2018-12-26T05:03:03.213Z,4.18
2018-12-26T05:04:02.525Z,4.18
2018-12-26T05:05:02.837Z,4.18
2018-12-26T05:06:03.164Z,4.12
2018-12-26T05:07:02.430Z,4.18
2018-12-26T05:08:02.677Z,4.18
2018-12-26T05:09:03.019Z,4.12
2018-12-26T05:10:02.287Z,4.12
2018-12-26T05:11:02.625Z,4.12
2018-12-26T05:12:02.931Z,4.12
2018-12-26T05:13:03.232Z,4.12
2018-12-26T05:14:02.569Z,4.12
2018-12-26T05:15:02.905Z,4.12
2018-12-26T05:16:03.162Z,4.12
2018-12-26T05:17:02.462Z,4.12
2018-12-26T05:18:02.768Z,4.12
2018-12-26T05:19:03.076Z,4.12
2018-12-26T05:20:02.363Z,4.12
2018-12-26T05:21:02.732Z,4.12
2018-12-26T05:22:02.999Z,4.12
2018-12-26T05:23:02.287Z,4.12
2018-12-26T05:24:02.653Z,4.12
2018-12-26T05:25:02.972Z,4.06
2018-12-26T05:26:02.443Z,4.06
2018-12-26T05:27:02.811Z,4.06
2018-12-26T05:28:03.103Z,4.06
2018-12-26T05:29:02.356Z,4.06
2018-12-26T05:30:02.599Z,4.06
2018-12-26T05:31:02.922Z,4.06
2018-12-26T05:32:03.284Z,4.06
2018-12-26T05:33:02.618Z,4
2018-12-26T05:34:02.917Z,4
2018-12-26T05:35:03.235Z,4
2018-12-26T05:36:02.514Z,4
2018-12-26T05:37:02.765Z,4
2018-12-26T05:38:03.131Z,4
2018-12-26T05:39:03.212Z,3.93
2018-12-26T05:40:02.527Z,3.93
2018-12-26T05:41:03.088Z,3.93
2018-12-26T05:42:02.354Z,3.93
2018-12-26T05:43:02.739Z,3.93
2018-12-26T05:44:02.997Z,3.93
2018-12-26T05:45:02.290Z,3.93
2018-12-26T05:46:02.596Z,3.93
2018-12-26T05:47:02.838Z,3.93
2018-12-26T05:48:03.218Z,3.93
2018-12-26T05:49:02.530Z,3.93
2018-12-26T05:50:02.860Z,3.87
2018-12-26T05:51:03.159Z,3.87
2018-12-26T05:52:02.439Z,3.87
2018-12-26T05:53:02.772Z,3.87
2018-12-26T05:54:03.130Z,3.87
2018-12-26T05:55:02.437Z,3.81
2018-12-26T05:56:02.849Z,3.87
2018-12-26T05:57:03.211Z,3.87
2018-12-26T05:58:02.513Z,3.87
2018-12-26T05:59:02.760Z,3.81
2018-12-26T06:00:03.136Z,3.81
2018-12-26T06:01:02.986Z,3.81
2018-12-26T06:02:02.278Z,3.87
2018-12-26T06:03:02.598Z,3.87
2018-12-26T06:04:02.919Z,3.81
2018-12-26T06:05:03.241Z,3.81
2018-12-26T06:06:02.578Z,3.81
2018-12-26T06:07:02.839Z,3.81
2018-12-26T06:08:03.155Z,3.81
2018-12-26T06:09:02.448Z,3.81
2018-12-26T06:10:02.787Z,3.81
2018-12-26T06:11:03.230Z,3.75
2018-12-26T06:12:02.587Z,3.75
2018-12-26T06:13:02.853Z,3.75
2018-12-26T06:14:03.167Z,3.75
2018-12-26T06:15:02.438Z,3.81
2018-12-26T06:16:02.775Z,3.75
2018-12-26T06:17:03.137Z,3.75
2018-12-26T06:18:03.311Z,3.75
2018-12-26T06:19:02.594Z,3.75
2018-12-26T06:20:02.847Z,3.81
2018-12-26T06:21:03.167Z,3.81
2018-12-26T06:22:02.456Z,3.81
2018-12-26T06:23:02.868Z,3.81
2018-12-26T06:24:03.123Z,3.81
2018-12-26T06:25:02.432Z,3.75
2018-12-26T06:26:02.729Z,3.75
2018-12-26T06:27:03.930Z,3.81
2018-12-26T06:28:03.254Z,3.75
2018-12-26T06:29:02.575Z,3.81
2018-12-26T06:30:02.833Z,3.75
2018-12-26T06:31:03.069Z,3.81
2018-12-26T06:32:02.410Z,3.75
2018-12-26T06:33:02.672Z,3.81
2018-12-26T06:34:03.048Z,3.75
2018-12-26T06:35:02.358Z,3.75
2018-12-26T06:36:02.675Z,3.75
2018-12-26T06:37:02.997Z,3.75
2018-12-26T06:38:02.282Z,3.81
2018-12-26T06:39:02.597Z,3.81
2018-12-26T06:40:02.972Z,3.75
2018-12-26T06:41:02.291Z,3.81
2018-12-26T06:42:02.592Z,3.75
2018-12-26T06:43:02.892Z,3.81
2018-12-26T06:44:03.175Z,3.75
2018-12-26T06:45:02.507Z,3.75
2018-12-26T06:46:02.765Z,3.81
2018-12-26T06:47:03.080Z,3.81
2018-12-26T06:48:02.374Z,3.81
2018-12-26T06:49:02.674Z,3.81
2018-12-26T06:50:02.980Z,3.75
2018-12-26T06:51:02.316Z,3.75
2018-12-26T06:52:02.597Z,3.75
2018-12-26T06:53:02.917Z,3.75
2018-12-26T06:54:03.235Z,3.75
2018-12-26T06:55:02.585Z,3.75
2018-12-26T06:56:02.927Z,3.68
2018-12-26T06:57:03.251Z,3.68
2018-12-26T06:58:02.582Z,3.75
2018-12-26T06:59:03.777Z,3.68
2018-12-26T07:00:03.073Z,3.68
2018-12-26T07:01:02.369Z,3.68
2018-12-26T07:02:02.804Z,3.75
2018-12-26T07:03:03.076Z,3.68
2018-12-26T07:04:02.353Z,3.68
2018-12-26T07:05:02.678Z,3.68
2018-12-26T07:06:02.993Z,3.62
2018-12-26T07:07:02.273Z,3.68
2018-12-26T07:08:02.693Z,3.68
2018-12-26T07:09:02.993Z,3.62
2018-12-26T07:10:02.276Z,3.68
2018-12-26T07:11:02.593Z,3.68
2018-12-26T07:12:02.928Z,3.68
2018-12-26T07:13:03.331Z,3.68
2018-12-26T07:14:02.607Z,3.68
2018-12-26T07:15:03.219Z,3.68
2018-12-26T07:16:02.511Z,3.68
2018-12-26T07:17:02.838Z,3.68
2018-12-26T07:18:03.159Z,3.68
2018-12-26T07:19:02.494Z,3.75
2018-12-26T07:20:02.756Z,3.68
2018-12-26T07:21:03.101Z,3.68
2018-12-26T07:22:02.442Z,3.68
2018-12-26T07:23:02.762Z,3.68
2018-12-26T07:24:03.168Z,3.62
2018-12-26T07:25:02.443Z,3.62
2018-12-26T07:26:03.635Z,3.68
2018-12-26T07:27:02.943Z,3.75
2018-12-26T07:28:08.882Z,3.75
2018-12-26T07:29:02.659Z,3.68
2018-12-26T07:30:03.004Z,3.68
2018-12-26T07:31:02.332Z,3.75
2018-12-26T07:32:02.597Z,3.68
2018-12-26T07:33:03.770Z,3.68
2018-12-26T07:34:03.426Z,3.68
2018-12-26T07:35:02.896Z,3.68
2018-12-26T07:36:03.326Z,3.68
2018-12-26T07:37:02.590Z,3.68
2018-12-26T07:38:02.845Z,3.68
2018-12-26T07:39:03.154Z,3.68
2018-12-26T07:40:02.457Z,3.68
2018-12-26T07:41:02.821Z,3.75
2018-12-26T07:42:03.132Z,3.68
2018-12-26T07:43:02.492Z,3.68
2018-12-26T07:44:02.751Z,3.68
2018-12-26T07:45:03.006Z,3.68
2018-12-26T07:46:02.328Z,3.68
2018-12-26T07:47:02.606Z,3.68
2018-12-26T07:48:02.983Z,3.68
2018-12-26T07:49:02.285Z,3.68
2018-12-26T07:50:02.611Z,3.75
2018-12-26T07:51:02.930Z,3.68
2018-12-26T07:52:03.231Z,3.68
2018-12-26T07:53:02.573Z,3.75
2018-12-26T07:54:02.925Z,3.68
2018-12-26T07:55:03.233Z,3.68
2018-12-26T07:56:02.551Z,3.68
2018-12-26T07:57:02.842Z,3.62
2018-12-26T07:58:03.269Z,3.68
2018-12-26T07:59:02.538Z,3.68
2018-12-26T08:00:02.838Z,3.62
2018-12-26T08:01:03.234Z,3.62
2018-12-26T08:02:02.517Z,3.62
2018-12-26T08:03:02.859Z,3.68
2018-12-26T08:04:03.214Z,3.68
2018-12-26T08:05:02.520Z,3.68
2018-12-26T08:06:02.839Z,3.68
2018-12-26T08:07:03.150Z,3.68
2018-12-26T08:08:02.445Z,3.68
2018-12-26T08:09:02.921Z,3.68
2018-12-26T08:10:03.236Z,3.62
2018-12-26T08:11:02.520Z,3.62
2018-12-26T08:12:02.839Z,3.62
2018-12-26T08:13:03.161Z,3.62
2018-12-26T08:14:02.496Z,3.62
2018-12-26T08:15:10.413Z,3.68
2018-12-26T08:16:03.127Z,3.62
2018-12-26T08:17:02.437Z,3.62
2018-12-26T08:18:02.775Z,3.62
2018-12-26T08:19:03.069Z,3.68
2018-12-26T08:20:02.362Z,3.68
2018-12-26T08:21:02.770Z,3.62
2018-12-26T08:22:03.081Z,3.62
2018-12-26T08:23:02.372Z,3.68
2018-12-26T08:24:02.684Z,3.68
2018-12-26T08:25:03.015Z,3.62
2018-12-26T08:26:02.283Z,3.62
2018-12-26T08:27:02.658Z,3.62
2018-12-26T08:28:02.923Z,3.68
2018-12-26T08:29:03.257Z,3.68
2018-12-26T08:30:02.524Z,3.68
2018-12-26T08:31:02.887Z,3.62
2018-12-26T08:32:03.246Z,3.62
2018-12-26T08:33:02.570Z,3.68
2018-12-26T08:34:02.832Z,3.68
2018-12-26T08:35:03.073Z,3.62
2018-12-26T08:36:02.363Z,3.62
2018-12-26T08:37:02.780Z,3.62
2018-12-26T08:38:03.104Z,3.62
2018-12-26T08:39:02.401Z,3.68
2018-12-26T08:40:02.679Z,3.68
2018-12-26T08:41:02.999Z,3.68
2018-12-26T08:42:02.280Z,3.68
2018-12-26T08:43:02.598Z,3.68
2018-12-26T08:44:03.005Z,3.68
2018-12-26T08:45:02.283Z,3.68
2018-12-26T08:46:02.646Z,3.68
2018-12-26T08:47:02.968Z,3.68
2018-12-26T08:48:02.334Z,3.68
2018-12-26T08:49:02.612Z,3.68
2018-12-26T08:50:02.973Z,3.62
2018-12-26T08:51:02.278Z,3.68
2018-12-26T08:52:02.612Z,3.68
2018-12-26T08:53:02.994Z,3.68
2018-12-26T08:54:02.277Z,3.68
2018-12-26T08:55:02.652Z,3.62
2018-12-26T08:56:03.013Z,3.68
2018-12-26T08:57:02.276Z,3.62
2018-12-26T08:58:02.621Z,3.62
2018-12-26T08:59:02.915Z,3.62
2018-12-26T09:00:03.234Z,3.62
2018-12-26T09:01:02.518Z,3.62
2018-12-26T09:02:03.007Z,3.62
2018-12-26T09:03:02.332Z,3.62
2018-12-26T09:04:02.698Z,3.68
2018-12-26T09:05:03.008Z,3.68
2018-12-26T09:06:02.270Z,3.75
2018-12-26T09:07:02.529Z,3.75
2018-12-26T09:08:02.927Z,3.68
2018-12-26T09:09:03.257Z,3.75
2018-12-26T09:10:02.523Z,3.75
2018-12-26T09:11:02.846Z,3.75
2018-12-26T09:12:03.173Z,3.68
2018-12-26T09:13:02.527Z,3.75
2018-12-26T09:14:02.918Z,3.75
2018-12-26T09:15:03.262Z,3.68
2018-12-26T09:16:02.529Z,3.75
2018-12-26T09:17:02.843Z,3.75
2018-12-26T09:18:03.254Z,3.75
2018-12-26T09:19:02.522Z,3.68
2018-12-26T09:20:02.895Z,3.68
2018-12-26T09:21:03.155Z,3.68
2018-12-26T09:22:02.440Z,3.68
2018-12-26T09:23:02.775Z,3.68
2018-12-26T09:24:03.102Z,3.75
2018-12-26T09:25:02.369Z,3.75
2018-12-26T09:26:02.738Z,3.81
2018-12-26T09:27:03.000Z,3.81
2018-12-26T09:28:02.281Z,3.81
2018-12-26T09:29:02.680Z,3.75
2018-12-26T09:30:02.995Z,3.75
2018-12-26T09:31:02.292Z,3.75
2018-12-26T09:32:02.646Z,3.81
2018-12-26T09:33:02.981Z,3.81
2018-12-26T09:34:02.270Z,3.75
2018-12-26T09:35:02.527Z,3.75
2018-12-26T09:36:02.857Z,3.81
2018-12-26T09:37:03.444Z,3.81
2018-12-26T09:38:02.772Z,3.75
2018-12-26T09:39:03.067Z,3.75
2018-12-26T09:40:02.352Z,3.81
2018-12-26T09:41:02.603Z,3.81
2018-12-26T09:42:02.927Z,3.75
2018-12-26T09:43:03.293Z,3.81
2018-12-26T09:44:02.596Z,3.81
2018-12-26T09:45:02.917Z,3.81
2018-12-26T09:46:03.236Z,3.81
2018-12-26T09:47:02.517Z,3.87
2018-12-26T09:48:03.813Z,3.87
2018-12-26T09:49:03.108Z,3.87
2018-12-26T09:50:02.459Z,3.87
2018-12-26T09:51:02.764Z,3.87
2018-12-26T09:52:03.094Z,3.87
2018-12-26T09:53:02.373Z,3.81
2018-12-26T09:54:02.730Z,3.81
2018-12-26T09:55:02.989Z,3.81
2018-12-26T09:56:02.280Z,3.87
2018-12-26T09:57:02.593Z,3.87
2018-12-26T09:58:02.864Z,3.87
2018-12-26T09:59:03.211Z,3.87
2018-12-26T10:00:02.510Z,3.87
2018-12-26T10:01:02.751Z,3.87
2018-12-26T10:02:03.003Z,3.87
2018-12-26T10:03:02.379Z,3.93
2018-12-26T10:04:02.780Z,3.87
2018-12-26T10:05:03.128Z,3.87
2018-12-26T10:06:02.433Z,3.93
2018-12-26T10:07:02.762Z,3.87
2018-12-26T10:08:03.069Z,3.93
2018-12-26T10:09:02.372Z,3.93
2018-12-26T10:10:02.687Z,3.93
2018-12-26T10:11:03.062Z,3.93
2018-12-26T10:12:02.353Z,3.87
2018-12-26T10:13:02.680Z,3.93
2018-12-26T10:14:03.000Z,3.93
2018-12-26T10:15:02.271Z,3.93
2018-12-26T10:16:02.614Z,3.93
2018-12-26T10:17:02.964Z,4
2018-12-26T10:18:02.287Z,3.93
2018-12-26T10:19:02.653Z,3.93
2018-12-26T10:20:02.920Z,3.93
2018-12-26T10:21:03.256Z,3.93
2018-12-26T10:22:02.509Z,3.93
2018-12-26T10:23:03.020Z,3.93
2018-12-26T10:24:02.350Z,3.93
2018-12-26T10:25:02.590Z,3.93
2018-12-26T10:26:02.833Z,4
2018-12-26T10:27:03.163Z,3.93
2018-12-26T10:28:02.445Z,3.93
2018-12-26T10:29:02.809Z,3.93
2018-12-26T10:30:03.094Z,3.93
2018-12-26T10:31:02.432Z,3.93
2018-12-26T10:32:02.768Z,3.93
2018-12-26T10:33:03.959Z,3.93
2018-12-26T10:34:02.331Z,4
2018-12-26T10:35:02.689Z,4
2018-12-26T10:36:02.987Z,4
2018-12-26T10:37:02.280Z,4.06
2018-12-26T10:38:02.620Z,4.06
2018-12-26T10:39:02.932Z,4
2018-12-26T10:40:03.365Z,4
2018-12-26T10:41:02.669Z,4.06
2018-12-26T10:42:02.937Z,4
2018-12-26T10:43:03.251Z,4.06
2018-12-26T10:44:02.552Z,4.06
2018-12-26T10:45:02.844Z,4.06
2018-12-26T10:46:03.177Z,4.06
2018-12-26T10:47:02.448Z,4.06
2018-12-26T10:48:03.721Z,4.12
2018-12-26T10:49:03.006Z,4.12
2018-12-26T10:50:02.286Z,4.12
2018-12-26T10:51:02.645Z,4.12
2018-12-26T10:52:02.915Z,4.18
2018-12-26T10:53:03.235Z,4.18
2018-12-26T10:54:02.524Z,4.18
2018-12-26T10:55:02.830Z,4.18
2018-12-26T10:56:03.124Z,4.12
2018-12-26T10:57:02.418Z,4.18
2018-12-26T10:58:02.692Z,4.18
2018-12-26T10:59:09.882Z,4.12
2018-12-26T11:00:02.745Z,4.18
2018-12-26T11:01:03.194Z,4.12
2018-12-26T11:02:02.537Z,4.06
2018-12-26T11:03:02.864Z,4.06
2018-12-26T11:04:03.182Z,4.12
2018-12-26T11:05:03.395Z,4.12
2018-12-26T11:06:02.735Z,4.06
2018-12-26T11:07:03.165Z,4.12
2018-12-26T11:08:02.438Z,4.12
2018-12-26T11:09:02.753Z,4.12
2018-12-26T11:10:03.082Z,4.12
2018-12-26T11:11:02.373Z,4.12
2018-12-26T11:12:02.717Z,4.12
2018-12-26T11:13:03.014Z,4.12
2018-12-26T11:14:02.354Z,4.12
2018-12-26T11:15:02.605Z,4.12
2018-12-26T11:16:02.915Z,4.18
2018-12-26T11:17:03.336Z,4.12
2018-12-26T11:18:02.601Z,4.18
2018-12-26T11:19:02.902Z,4.12
2018-12-26T11:20:03.150Z,4.18
2018-12-26T11:21:02.500Z,4.18
2018-12-26T11:22:03.047Z,4.18
2018-12-26T11:23:02.474Z,4.18
2018-12-26T11:24:02.757Z,4.12
2018-12-26T11:25:03.141Z,4.12
2018-12-26T11:26:02.433Z,4.12
2018-12-26T11:27:02.663Z,4.12
2018-12-26T11:28:03.077Z,4.18
2018-12-26T11:29:02.357Z,4.18
2018-12-26T11:30:02.677Z,4.12
2018-12-26T11:31:02.998Z,4.18
2018-12-26T11:32:02.284Z,4.18
2018-12-26T11:33:02.605Z,4.18
2018-12-26T11:34:03.007Z,4.18
2018-12-26T11:35:02.274Z,4.18
2018-12-26T11:36:02.517Z,4.18
2018-12-26T11:37:02.918Z,4.12
2018-12-26T11:38:03.174Z,4.12
2018-12-26T11:39:02.441Z,4.18
2018-12-26T11:40:03.003Z,4.18
2018-12-26T11:41:02.334Z,4.18
2018-12-26T11:42:02.647Z,4.18
2018-12-26T11:43:02.923Z,4.18
2018-12-26T11:44:03.298Z,4.18
2018-12-26T11:45:02.604Z,4.18
2018-12-26T11:46:02.965Z,4.18
2018-12-26T11:47:02.270Z,4.18
2018-12-26T11:48:02.519Z,4.18
2018-12-26T11:49:02.849Z,4.18
2018-12-26T11:50:03.165Z,4.12
2018-12-26T11:51:02.448Z,4.12
2018-12-26T11:52:02.882Z,4.12
2018-12-26T11:53:03.161Z,4.12
2018-12-26T11:54:02.509Z,4.12
2018-12-26T11:55:02.868Z,4.12
2018-12-26T11:56:03.149Z,4.18
2018-12-26T11:57:02.488Z,4.18
2018-12-26T11:58:03.675Z,4.12
2018-12-26T11:59:02.998Z,4.18
2018-12-26T12:00:02.277Z,4.18
2018-12-26T12:01:02.609Z,4.18
2018-12-26T12:02:02.934Z,4.25
2018-12-26T12:03:03.417Z,4.18
2018-12-26T12:04:02.686Z,4.18
2018-12-26T12:05:03.000Z,4.18
2018-12-26T12:06:02.287Z,4.18
2018-12-26T12:07:02.660Z,4.18
2018-12-26T12:08:02.967Z,4.18
2018-12-26T12:09:02.338Z,4.18
2018-12-26T12:10:02.605Z,4.18
2018-12-26T12:11:02.915Z,4.18
2018-12-26T12:12:03.231Z,4.18
2018-12-26T12:13:02.540Z,4.18
2018-12-26T12:14:02.895Z,4.25
2018-12-26T12:15:03.153Z,4.25
2018-12-26T12:16:02.442Z,4.18
2018-12-26T12:17:02.756Z,4.18
2018-12-26T12:18:03.076Z,4.18
2018-12-26T12:19:02.376Z,4.18
2018-12-26T12:20:02.729Z,4.18
2018-12-26T12:21:02.988Z,4.18
2018-12-26T12:22:02.284Z,4.18
2018-12-26T12:23:02.670Z,4.18
2018-12-26T12:24:02.972Z,4.18
2018-12-26T12:25:02.281Z,4.25
2018-12-26T12:26:03.565Z,4.18
2018-12-26T12:27:02.834Z,4.18
2018-12-26T12:28:03.158Z,4.25
2018-12-26T12:29:02.436Z,4.25
2018-12-26T12:30:02.755Z,4.18
2018-12-26T12:31:03.080Z,4.18
2018-12-26T12:32:02.440Z,4.18
2018-12-26T12:33:02.759Z,4.18
2018-12-26T12:34:04.856Z,4.25
2018-12-26T12:35:03.153Z,4.18
2018-12-26T12:36:02.441Z,4.25
2018-12-26T12:37:02.778Z,4.18
2018-12-26T12:38:03.634Z,4.18
2018-12-26T12:39:03.038Z,4.18
2018-12-26T12:40:02.354Z,4.25
2018-12-26T12:41:02.591Z,4.25
2018-12-26T12:42:02.862Z,4.25
2018-12-26T12:43:03.161Z,4.25
2018-12-26T12:44:02.495Z,4.25
2018-12-26T12:45:02.758Z,4.25
2018-12-26T12:46:03.086Z,4.25
2018-12-26T12:47:02.355Z,4.25
2018-12-26T12:48:02.675Z,4.25
2018-12-26T12:49:03.053Z,4.25
2018-12-26T12:50:02.383Z,4.31
2018-12-26T12:51:02.695Z,4.31
2018-12-26T12:52:03.009Z,4.31
2018-12-26T12:53:02.278Z,4.31
2018-12-26T12:54:02.775Z,4.31
2018-12-26T12:55:03.099Z,4.31
2018-12-26T12:56:02.374Z,4.31
2018-12-26T12:57:02.674Z,4.31
2018-12-26T12:58:02.974Z,4.31
2018-12-26T12:59:02.271Z,4.31
2018-12-26T13:00:02.574Z,4.31
2018-12-26T13:01:02.847Z,4.31
2018-12-26T13:02:03.150Z,4.31
2018-12-26T13:03:02.515Z,4.31
2018-12-26T13:04:02.766Z,4.37
2018-12-26T13:05:03.179Z,4.31
2018-12-26T13:06:02.436Z,4.37
2018-12-26T13:07:02.792Z,4.37
2018-12-26T13:08:03.092Z,4.31
2018-12-26T13:09:02.411Z,4.37
2018-12-26T13:10:02.704Z,4.31
2018-12-26T13:11:03.124Z,4.31
2018-12-26T13:12:02.452Z,4.37
2018-12-26T13:13:02.767Z,4.37
2018-12-26T13:14:03.101Z,4.31
2018-12-26T13:15:02.361Z,4.37
2018-12-26T13:16:02.728Z,4.37
2018-12-26T13:17:03.116Z,4.31
2018-12-26T13:18:02.491Z,4.31
2018-12-26T13:19:02.773Z,4.31